Home > Products > Valid Products > TAF

000
FTUS41 KBGM 010100 AAA
TAFITH
TAF AMD
KITH 010129Z 0101/0124 10003KT P6SM FEW060
     FM010600 VRB03KT 4SM BR SKC
     FM011200 21007KT P6SM SCT050 BKN250=



000
FTUS41 KBGM 010100 AAA
TAFSYR
TAF AMD
KSYR 010128Z 0101/0124 13004KT P6SM FEW070
     FM011400 26008KT P6SM FEW060 SCT250=



000
FTUS41 KBGM 312300
TAFITH
TAF
KITH 312328Z 0100/0124 10003KT P6SM FEW060
     FM011400 21007KT P6SM SCT050 BKN250=



000
FTUS41 KBGM 312300
TAFAVP
TAF
KAVP 312328Z 0100/0124 22004KT P6SM SCT090
     FM010200 13003KT P6SM FEW080 SCT250
     FM011300 20007KT P6SM SCT050 BKN200 PROB30 0116/0120 -SHRA
      OVC050=



000
FTUS41 KBGM 312300
TAFELM
TAF
KELM 312328Z 0100/0124 28004KT P6SM FEW060
     FM010600 00000KT 4SM BR SKC
      TEMPO 0108/0112 1SM BR FEW002
     FM011300 22007KT P6SM FEW050 SCT250=



000
FTUS41 KBGM 312300
TAFBGM
TAF
KBGM 312328Z 0100/0124 21004KT P6SM FEW050
     FM011300 21008KT P6SM SCT050 BKN250=



000
FTUS41 KBGM 312300
TAFSYR
TAF
KSYR 312328Z 0100/0124 16004KT P6SM FEW070
     FM011400 26008KT P6SM FEW060 SCT250=



000
FTUS41 KBGM 312100 AAB
TAFAVP
TAF AMD
KAVP 312108Z 3121/0118 25009G18KT P6SM BKN050
     FM010000 22004KT P6SM BKN250
     FM010900 14002KT P6SM SCT100 OVC250
     FM011500 20002KT P6SM OVC100 PROB30 0115/0118 -SHRA OVC050=



000
FTUS41 KBGM 312100 AAC
TAFSYR
TAF AMD
KSYR 312104Z 3121/0118 23005KT P6SM SCT040 BKN120
      TEMPO 3121/3122 33010KT -SHRA OVC040
     FM312300 18004KT P6SM SCT250
     FM011500 27006KT P6SM SCT050 BKN250=



000
FTUS41 KBGM 311900 AAB
TAFSYR
TAF AMD
KSYR 311953Z 3120/0118 23005KT P6SM SCT040 BKN120
      TEMPO 3121/3122 33010G18KT 2SM SHRA OVC015
     FM312300 18004KT P6SM SCT250
     FM011500 27006KT P6SM SCT050 BKN250=



000
FTUS41 KBGM 311900 AAB
TAFITH
TAF AMD
KITH 311935Z 3120/0118 VRB04KT P6SM -SHRA OVC035
     FM312100 24007KT P6SM SCT035 BKN070
     FM010000 08003KT P6SM SCT250
     FM011500 21005KT P6SM SCT050 BKN250=



000
FTUS41 KBGM 311900 AAA
TAFBGM
TAF AMD
KBGM 311931Z 3120/0118 23010G17KT P6SM SCT040
     FM010000 21006KT P6SM FEW040 SCT250
     FM010300 18003KT P6SM BKN250
     FM011400 23008KT P6SM BKN050=



000
FTUS41 KBGM 311900 AAA
TAFSYR
TAF AMD
KSYR 311929Z 3119/0118 23005KT P6SM SCT050 BKN150
      TEMPO 3121/3122 30010G18KT -SHRA OVC040
     FM312300 18004KT P6SM SCT250
     FM011500 27006KT P6SM SCT050 BKN250=



000
FTUS41 KBGM 311800 AAA
TAFAVP
TAF AMD
KAVP 311816Z 3118/0118 22009G18KT P6SM BKN050
     FM010000 22004KT P6SM BKN250
     FM010900 14002KT P6SM SCT100 OVC250
     FM011500 20002KT P6SM OVC100 PROB30 0115/0118 -SHRA OVC050=



000
FTUS41 KBGM 311800 AAA
TAFITH
TAF AMD
KITH 311815Z 3118/0118 24009KT P6SM SCT035 BKN070
     FM010000 08003KT P6SM SCT250
     FM011500 21005KT P6SM SCT050 BKN250=



000
FTUS41 KBGM 311800 AAA
TAFELM
TAF AMD
KELM 311815Z 3118/0118 23008KT P6SM BKN050
     FM010000 00000KT P6SM SCT250
      TEMPO 0108/0112 4SM BR
     FM011500 23004KT P6SM FEW050 SCT250=



000
FTUS41 KBGM 311700
TAFAVP
TAF
KAVP 311720Z 3118/0118 26012G17KT P6SM BKN050
     FM010000 22004KT P6SM BKN250
     FM010900 14002KT P6SM SCT100 OVC250
     FM011500 20002KT P6SM OVC100 PROB30 0115/0118 -SHRA OVC050=



000
FTUS41 KBGM 311700
TAFBGM
TAF
KBGM 311720Z 3118/0118 22006KT P6SM BKN025
      TEMPO 3118/3120 SCT025 BKN035
     FM312000 23005KT P6SM BKN040
     FM010300 18003KT P6SM BKN250
     FM011400 23008KT P6SM BKN050=



000
FTUS41 KBGM 311700
TAFELM
TAF
KELM 311720Z 3118/0118 24009KT P6SM BKN050
     FM010000 00000KT P6SM SCT250
      TEMPO 0108/0112 4SM BR
     FM011500 23004KT P6SM FEW050 SCT250=



000
FTUS41 KBGM 311700
TAFITH
TAF
KITH 311720Z 3118/0118 23007KT P6SM SCT030 BKN040
      TEMPO 3118/3119 BKN030 BKN040
     FM010000 08003KT P6SM SCT250
     FM011500 21005KT P6SM SCT050 BKN250=



000
FTUS41 KBGM 311700
TAFSYR
TAF
KSYR 311720Z 3118/0118 26007KT P6SM BKN050 BKN150
     FM312300 18004KT P6SM SCT250
     FM011500 27006KT P6SM SCT050 BKN250=



000
FTUS41 KBGM 311500 AAA
TAFAVP
TAF AMD
KAVP 311523Z 3115/0112 25008KT P6SM BKN200
     FM311700 24009KT P6SM BKN035
      TEMPO 3119/3123 5SM SHRA BR
     FM010100 VRB03KT P6SM BKN100=



000
FTUS41 KBGM 311500 AAB
TAFBGM
TAF AMD
KBGM 311520Z 3115/0112 20008KT P6SM BKN014 OVC021
     FM311700 26010KT P6SM BKN035
      TEMPO 3118/3122 5SM SHRA BR
     FM010100 VRB03KT P6SM BKN100=



000
FTUS41 KBGM 311500 AAC
TAFITH
TAF AMD
KITH 311518Z 3115/0112 22007KT P6SM BKN025
     FM311700 26010KT P6SM BKN040
      TEMPO 3118/3122 5SM SHRA BR
     FM010100 VRB03KT P6SM BKN100=



000
FTUS41 KBGM 311500 AAB
TAFELM
TAF AMD
KELM 311518Z 3115/0112 24011G18KT P6SM BKN025 OVC030
     FM311700 25008KT P6SM BKN040
      TEMPO 3118/3122 5SM SHRA BR
     FM010100 VRB03KT P6SM BKN100
      TEMPO 0108/0112 4SM BR=



000
FTUS41 KBGM 311400 AAB
TAFSYR
TAF AMD
KSYR 311440Z 3115/0112 20007KT P6SM BKN025 BKN110
     FM311600 29010KT P6SM SCT050 BKN120
      TEMPO 3118/3122 5SM SHRA BR OVC035
     FM010100 VRB03KT P6SM BKN100=



000
FTUS41 KBGM 311400 AAA
TAFBGM
TAF AMD
KBGM 311434Z 3115/0112 25010KT P6SM OVC011
      TEMPO 3115/3116 SCT011 BKN040
     FM311600 26010KT P6SM BKN050
      TEMPO 3118/3122 5SM SHRA BR OVC035
     FM010100 VRB03KT P6SM BKN100=



000
FTUS41 KBGM 311400 AAA
TAFELM
TAF AMD
KELM 311400Z 3114/0112 21010KT P6SM SCT021 BKN035
      TEMPO 3114/3115 OVC021
     FM311500 26010KT P6SM SCT050 BKN120
      TEMPO 3118/3122 5SM SHRA BR OVC035
     FM010100 VRB03KT P6SM BKN100
      TEMPO 0108/0112 4SM BR=



000
FTUS41 KBGM 311300 AAB
TAFITH
TAF AMD
KITH 311338Z 3114/0112 21008KT P6SM SCT015 OVC035
      TEMPO 3114/3116 -SHRA BKN015
     FM311600 26010KT P6SM BKN050
      TEMPO 3118/3122 5SM SHRA BR OVC035
     FM010100 VRB03KT P6SM BKN100=



000
FTUS41 KBGM 311300 AAA
TAFBGM
TAF AMD
KBGM 311324Z 3113/0112 21005KT P6SM SCT009 OVC110
      TEMPO 3113/3115 -SHRA OVC009
     FM311600 26010KT P6SM BKN050
      TEMPO 3118/3122 5SM SHRA BR OVC035
     FM010100 VRB03KT P6SM BKN100=



000
FTUS41 KBGM 311200 AAA
TAFITH
TAF AMD
KITH 311225Z 3112/0112 20006KT P6SM SCT045 OVC080
      TEMPO 3112/3114 4SM -TSRA BR OVC040CB
     FM311600 26010KT P6SM BKN050
      TEMPO 3118/3122 5SM SHRA BR OVC035
     FM010100 VRB03KT P6SM BKN100=



000
FTUS41 KBGM 311100 AAA
TAFSYR
TAF AMD
KSYR 311155Z 3112/0112 22010G18KT 2SM -TSRA OVC025CB
     FM311230 22005KT P6SM SCT040 BKN060
     FM311700 29010KT P6SM SCT050 BKN120
      TEMPO 3118/3122 5SM SHRA BR OVC035
     FM010100 VRB03KT P6SM BKN100=



000
FTUS41 KBGM 311100
TAFAVP
TAF
KAVP 311137Z 3112/0112 17003KT P6SM SCT070 BKN120
     FM311500 22009KT P6SM BKN050
      TEMPO 3119/3123 5SM SHRA BR OVC035
     FM010100 VRB03KT P6SM BKN100=



000
FTUS41 KBGM 311100
TAFBGM
TAF
KBGM 311137Z 3112/0112 18007KT P6SM SCT025 BKN040
      TEMPO 3112/3116 4SM SHRA OVC025
     FM311800 26010KT P6SM BKN050
      TEMPO 3118/3122 5SM SHRA BR OVC035
     FM010100 VRB03KT P6SM BKN100=



000
FTUS41 KBGM 311100
TAFELM
TAF
KELM 311137Z 3112/0112 24006KT P6SM SCT030 BKN070
      TEMPO 3112/3115 5SM -SHRA BR OVC015
     FM311600 26010KT P6SM SCT050 BKN120
      TEMPO 3118/3122 5SM SHRA BR OVC035
     FM010100 VRB03KT P6SM BKN100
      TEMPO 0108/0112 4SM BR=



000
FTUS41 KBGM 311100
TAFITH
TAF
KITH 311137Z 3112/0112 21006KT P6SM SCT040 BKN070
      TEMPO 3112/3116 4SM -SHRA BR OVC040
     FM311600 26010KT P6SM BKN050
      TEMPO 3118/3122 5SM SHRA BR OVC035
     FM010100 VRB03KT P6SM BKN100=



000
FTUS41 KBGM 311100
TAFSYR
TAF
KSYR 311137Z 3112/0112 17006KT P6SM SCT040 BKN060
      TEMPO 3112/3116 4SM TSRA OVC025CB
     FM311700 29010KT P6SM SCT050 BKN120
      TEMPO 3118/3122 5SM SHRA BR OVC035
     FM010100 VRB03KT P6SM BKN100=



000
FTUS41 KBGM 311100 AAB
TAFSYR
TAF AMD
KSYR 311100Z 3111/0106 24006KT P6SM SCT040 BKN060
      TEMPO 3112/3116 4SM TSRA OVC025CB
     FM311700 29010KT P6SM SCT050 BKN120
     FM010100 VRB03KT P6SM BKN100=



000
FTUS41 KBGM 311000 AAB
TAFELM
TAF AMD
KELM 311035Z 3111/0106 VRB02KT 5SM BR BKN120
     FM311200 24006KT P6SM SCT030 BKN070
      TEMPO 3112/3115 5SM -SHRA BR OVC030
     FM311600 26010KT P6SM SCT050 BKN120
     FM010100 VRB03KT P6SM BKN100=



000
FTUS41 KBGM 310800 AAA
TAFBGM
TAF AMD
KBGM 310834Z 3109/0106 24004KT P6SM FEW050 BKN090
     FM311200 23008KT P6SM SCT025 BKN040
      TEMPO 3112/3116 4SM -SHRA OVC025
     FM311800 26010KT P6SM BKN050
     FM010100 VRB03KT P6SM BKN100=



000
FTUS41 KBGM 310800 AAA
TAFITH
TAF AMD
KITH 310834Z 3109/0106 14004KT P6SM SCT035 BKN120
     FM311200 21006KT P6SM SCT040 BKN070
      TEMPO 3112/3116 4SM -SHRA BR OVC040
     FM311600 26010KT P6SM BKN050
     FM010100 VRB03KT P6SM BKN100=



000
FTUS41 KBGM 310800 AAA
TAFSYR
TAF AMD
KSYR 310834Z 3109/0106 19004KT P6SM FEW050 BKN100
     FM311200 24006KT P6SM SCT040 BKN060
      TEMPO 3112/3116 4SM -SHRA OVC040
     FM311700 29010KT P6SM SCT050 BKN120
     FM010100 VRB03KT P6SM BKN100=



000
FTUS41 KBGM 310800 AAA
TAFELM
TAF AMD
KELM 310834Z 3109/0106 VRB02KT 5SM BR BKN120
      TEMPO 3109/3112 1 1/2SM BR FEW002 SCT120
     FM311200 24006KT P6SM SCT030 BKN070
      TEMPO 3112/3115 5SM -SHRA BR OVC030
     FM311600 26010KT P6SM SCT050 BKN120
     FM010100 VRB03KT P6SM BKN100=



000
FTUS41 KBGM 310800 AAA
TAFAVP
TAF AMD
KAVP 310834Z 3109/0106 17003KT P6SM SCT070 BKN120
     FM311300 22009KT P6SM BKN050
     FM010100 VRB03KT P6SM BKN100=



000
FTUS41 KBGM 310500
TAFELM
TAF
KELM 310533Z 3106/0106 VRB02KT 5SM BR BKN120
      TEMPO 3107/3111 1 1/2SM BR FEW002 SCT120
     FM311100 24006KT P6SM SCT030 BKN070
      TEMPO 3111/3115 5SM -SHRA BR OVC030
     FM311600 26010KT P6SM SCT050 BKN120
     FM010100 VRB03KT P6SM BKN100=



000
FTUS41 KBGM 310500
TAFAVP
TAF
KAVP 310533Z 3106/0106 17003KT P6SM SCT070 BKN120
     FM311300 22009KT P6SM BKN050
     FM010100 VRB03KT P6SM BKN100=



000
FTUS41 KBGM 310500
TAFSYR
TAF
KSYR 310533Z 3106/0106 19004KT P6SM FEW050 BKN100
     FM311200 24006KT P6SM SCT040 BKN060
      TEMPO 3112/3116 4SM -SHRA OVC040
     FM311700 29010KT P6SM SCT050 BKN120
     FM010100 VRB03KT P6SM BKN100=



000
FTUS41 KBGM 310500
TAFITH
TAF
KITH 310533Z 3106/0106 14004KT P6SM SCT035 BKN120
     FM311200 21006KT P6SM SCT040 BKN070
      TEMPO 3112/3116 4SM -SHRA BR OVC040
     FM311600 26010KT P6SM BKN050
     FM010100 VRB03KT P6SM BKN100=



000
FTUS41 KBGM 310500
TAFBGM
TAF
KBGM 310533Z 3106/0106 24004KT P6SM FEW050 BKN090
     FM311200 23008KT P6SM SCT025 BKN040
      TEMPO 3112/3116 4SM -SHRA OVC025
     FM311800 26010KT P6SM BKN050
     FM010100 VRB03KT P6SM BKN100=



000
FTUS41 KBGM 310200 AAA
TAFBGM
TAF AMD
KBGM 310209Z 3102/3124 24004KT P6SM FEW050 BKN090
     FM311200 23008KT P6SM SCT025 BKN040
      TEMPO 3112/3116 4SM -SHRA OVC025
     FM311800 26010KT P6SM BKN050=



000
FTUS41 KBGM 310200 AAA
TAFITH
TAF AMD
KITH 310208Z 3102/3124 14004KT P6SM SCT035 BKN120
     FM311200 21006KT P6SM SCT040 BKN070
      TEMPO 3112/3116 4SM -SHRA BR OVC040
     FM311600 26010KT P6SM BKN050=



000
FTUS41 KBGM 310200 AAA
TAFSYR
TAF AMD
KSYR 310207Z 3102/3124 19004KT P6SM FEW050 BKN100
     FM311200 24006KT P6SM SCT040 BKN060
      TEMPO 3112/3116 4SM -SHRA OVC040
     FM311700 29010KT P6SM SCT050 BKN120=



000
FTUS41 KBGM 302300
TAFSYR
TAF
KSYR 302328Z 3100/3124 19004KT P6SM SCT050 BKN100
      TEMPO 3100/3101 4SM -SHRA OVC050
     FM311200 24006KT P6SM SCT040 BKN060
      TEMPO 3112/3116 4SM -SHRA OVC040
     FM311700 29010KT P6SM SCT050 BKN120=



000
FTUS41 KBGM 302300
TAFITH
TAF
KITH 302328Z 3100/3124 VRB04KT P6SM SCT035 BKN120
      TEMPO 3100/3101 32007KT -SHRA OVC035
     FM311200 21006KT P6SM SCT040 BKN070
      TEMPO 3112/3116 4SM -SHRA BR OVC040
     FM311600 26010KT P6SM BKN050=



000
FTUS41 KBGM 302300
TAFELM
TAF
KELM 302328Z 3100/3124 23004KT P6SM SCT060 BKN120
     FM310600 VRB02KT 5SM BR BKN120
      TEMPO 3108/3112 1 1/2SM BR FEW002 SCT120
     FM311200 24006KT 6SM BR SCT030 BKN070
      TEMPO 3112/3116 3SM -SHRA BR OVC030
     FM311600 26010KT P6SM SCT050 BKN120=



000
FTUS41 KBGM 302300
TAFAVP
TAF
KAVP 302328Z 3100/3124 21005KT P6SM BKN060
      TEMPO 3101/3103 30010KT 4SM -SHRA OVC050
     FM310300 17003KT P6SM SCT070 BKN120
     FM311200 22009KT P6SM SCT050 PROB30 3113/3117 4SM SHRA OVC050=



000
FTUS41 KBGM 302300
TAFBGM
TAF
KBGM 302328Z 3100/3124 21006KT P6SM SCT050 BKN100
      TEMPO 3100/3101 30009KT -SHRA OVC050
     FM311200 23008KT P6SM SCT025 BKN040
      TEMPO 3112/3116 4SM -SHRA OVC025
     FM311800 26010KT P6SM BKN050=



000
FTUS41 KBGM 302200 AAA
TAFAVP
TAF AMD
KAVP 302203Z 3022/3118 21007KT P6SM BKN060
      TEMPO 3101/3103 30010KT 4SM -SHRA OVC050
     FM310300 15003KT P6SM OVC080
     FM310900 12002KT 4SM BR BKN250
     FM311300 23005KT P6SM SCT050 SCT250=



000
FTUS41 KBGM 302100 AAB
TAFITH
TAF AMD
KITH 302141Z 3022/3118 23008KT P6SM BKN050
      TEMPO 3022/3024 32009G18KT 5SM -SHRA OVC050
     FM310000 16004KT P6SM BKN120
     FM311200 20003KT 6SM HZ OVC050
     FM311400 25006KT P6SM SCT050 BKN250=



000
FTUS41 KBGM 302000 AAA
TAFBGM
TAF AMD
KBGM 302014Z 3020/3118 22008KT P6SM SCT050 BKN080
      TEMPO 3023/3101 5SM -SHRA OVC050
     FM310200 21005KT P6SM BKN120
     FM311200 21005KT 6SM BR SCT025 BKN100
     FM311400 25007KT P6SM BKN050 BKN250=



000
FTUS41 KBGM 302000 AAA
TAFITH
TAF AMD
KITH 302012Z 3020/3118 23009G15KT P6SM BKN050
      TEMPO 3022/3024 5SM -SHRA OVC060
     FM310000 16004KT P6SM BKN120
     FM311200 20003KT 6SM HZ OVC050
     FM311400 25006KT P6SM SCT050 BKN250=



000
FTUS41 KBGM 302000 AAA
TAFELM
TAF AMD
KELM 302011Z 3020/3118 25010G16KT P6SM BKN070 OVC090
      TEMPO 3022/3024 5SM -SHRA OVC035
     FM310000 22003KT P6SM BKN120
     FM310700 25002KT 5SM BR BKN120
     FM311200 25005KT P6SM BKN025
     FM311400 26008KT P6SM BKN250=



000
FTUS41 KBGM 301900 AAA
TAFSYR
TAF AMD
KSYR 301948Z 3020/3118 24008KT P6SM SCT050 BKN070
      TEMPO 3021/3023 29008G16KT 4SM -TSRA OVC050CB
     FM310200 22003KT P6SM BKN120
     FM311200 23004KT P6SM BKN050
     FM311500 29006KT P6SM SCT050 BKN250=



000
FTUS41 KBGM 301700
TAFELM
TAF
KELM 301733Z 3018/3118 24011G18KT P6SM BKN070 OVC090
      TEMPO 3018/3022 5SM -SHRA OVC035
     FM310000 22003KT P6SM BKN120
     FM310700 25002KT 5SM BR BKN120
     FM311200 25005KT P6SM BKN025
     FM311400 26008KT P6SM BKN250=



000
FTUS41 KBGM 301700
TAFITH
TAF
KITH 301733Z 3018/3118 24009G17KT P6SM BKN050
      TEMPO 3019/3023 5SM -SHRA OVC060
     FM310000 16004KT P6SM BKN120
     FM311200 20003KT 6SM HZ OVC050
     FM311400 25006KT P6SM SCT050 BKN250=



000
FTUS41 KBGM 301700
TAFBGM
TAF
KBGM 301733Z 3018/3118 22008KT P6SM SCT050 BKN080
      TEMPO 3021/3101 5SM -SHRA OVC060
     FM310200 21005KT P6SM BKN120
     FM311200 21005KT 6SM BR SCT025 BKN100
     FM311400 25007KT P6SM BKN050 BKN250=



000
FTUS41 KBGM 301700
TAFAVP
TAF
KAVP 301733Z 3018/3118 24008KT P6SM SCT050 BKN070
     FM302000 25008KT P6SM BKN080
     FM310300 15003KT P6SM -SHRA OVC080
     FM310900 12002KT 4SM BR BKN250
     FM311300 23005KT P6SM SCT050 SCT250=



000
FTUS41 KBGM 301700
TAFSYR
TAF
KSYR 301733Z 3018/3118 18012G18KT P6SM BKN045 OVC070
      TEMPO 3020/3024 5SM -SHRA OVC060
     FM310200 19003KT P6SM BKN120
     FM311200 23004KT P6SM BKN050
     FM311500 29006KT P6SM SCT050 BKN250=



000
FTUS41 KBGM 301600 AAA
TAFSYR
TAF AMD
KSYR 301659Z 3017/3112 18012G18KT P6SM BKN045 BKN060 OVC070
     FM301800 18010G18KT P6SM -SHRA OVC080
      TEMPO 3020/3024 5SM -SHRA OVC060
     FM310200 19003KT P6SM BKN120=



000
FTUS41 KBGM 301100
TAFSYR
TAF
KSYR 301127Z 3012/3112 11003KT P6SM BKN080
     FM301500 25006KT P6SM OVC080
     FM301800 26008KT P6SM -SHRA OVC080
      TEMPO 3020/3024 5SM -SHRA OVC060
     FM310200 19003KT P6SM BKN120=



000
FTUS41 KBGM 301100
TAFBGM
TAF
KBGM 301127Z 3012/3112 23005KT P6SM BKN070
     FM301800 22008KT P6SM -SHRA OVC070
      TEMPO 3020/3024 5SM -SHRA OVC060
     FM310200 21005KT P6SM BKN120=



000
FTUS41 KBGM 301100
TAFAVP
TAF
KAVP 301127Z 3012/3112 VRB03KT P6SM FEW080
     FM302000 25008KT P6SM -SHRA BKN080
     FM310300 15003KT P6SM BKN150=



000
FTUS41 KBGM 301100
TAFELM
TAF
KELM 301127Z 3012/3112 00000KT 2SM BR SCT001
      TEMPO 3012/3013 1/2SM FG VV001
     FM301330 23005KT P6SM BKN080
     FM301800 24007KT P6SM -SHRA OVC080
      TEMPO 3020/3024 5SM -SHRA OVC060
     FM310000 22003KT P6SM BKN120=



000
FTUS41 KBGM 301100
TAFITH
TAF
KITH 301127Z 3012/3112 11003KT P6SM BKN070
     FM301500 20007KT P6SM OVC070
     FM301800 22008KT P6SM -SHRA OVC070
      TEMPO 3020/3024 5SM -SHRA OVC060
     FM310000 16004KT P6SM BKN120=



000
FTUS41 KBGM 301000 AAB
TAFBGM
TAF AMD
KBGM 301045Z 3011/3106 23005KT P6SM BKN070
      TEMPO 3011/3012 2SM BR SCT001
     FM301800 22008KT P6SM -SHRA OVC070
      TEMPO 3020/3024 5SM -SHRA OVC060
     FM310200 21005KT P6SM BKN120=



000
FTUS41 KBGM 300800 AAA
TAFITH
TAF AMD
KITH 300852Z 3009/3106 11003KT P6SM BKN070
     FM301500 20007KT P6SM OVC070
     FM301800 22008KT P6SM -SHRA OVC070
      TEMPO 3020/3024 5SM -SHRA OVC060
     FM310000 16004KT P6SM BKN120=



000
FTUS41 KBGM 300800 AAA
TAFSYR
TAF AMD
KSYR 300852Z 3009/3106 11003KT P6SM BKN080
     FM301500 25006KT P6SM OVC080
     FM301800 26008KT P6SM -SHRA OVC080
      TEMPO 3020/3024 5SM -SHRA OVC060
     FM310200 19003KT P6SM BKN120=



000
FTUS41 KBGM 300800 AAA
TAFBGM
TAF AMD
KBGM 300852Z 3009/3106 23005KT P6SM BKN070
     FM301800 22008KT P6SM -SHRA OVC070
      TEMPO 3020/3024 5SM -SHRA OVC060
     FM310200 21005KT P6SM BKN120=



000
FTUS41 KBGM 300800 AAA
TAFELM
TAF AMD
KELM 300852Z 3009/3106 00000KT 1SM BR OVC002
      TEMPO 3009/3013 1/4SM FG VV001
     FM301300 23005KT P6SM BKN080
     FM301800 24007KT P6SM -SHRA OVC080
      TEMPO 3020/3024 5SM -SHRA OVC060
     FM310000 22003KT P6SM BKN120=



000
FTUS41 KBGM 300800 AAA
TAFAVP
TAF AMD
KAVP 300852Z 3009/3106 VRB03KT P6SM FEW080
     FM302000 25008KT P6SM -SHRA BKN080
     FM310300 15003KT P6SM BKN150=



000
FTUS41 KBGM 300500
TAFSYR
TAF
KSYR 300536Z 3006/3106 11003KT P6SM BKN080
     FM301500 25006KT P6SM OVC080
     FM301800 26008KT P6SM -SHRA OVC080
      TEMPO 3020/3024 5SM -SHRA OVC060
     FM310200 19003KT P6SM BKN120=



000
FTUS41 KBGM 300500
TAFELM
TAF
KELM 300536Z 3006/3106 00000KT 3SM BR SCT002
      TEMPO 3006/3010 1SM BR
     FM301000 00000KT 3SM BR SCT002 SCT080
      TEMPO 3010/3013 3/4SM BR OVC002
     FM301300 23005KT P6SM BKN080
     FM301800 24007KT P6SM -SHRA OVC080
      TEMPO 3020/3024 5SM -SHRA OVC060
     FM310000 22003KT P6SM BKN120=



000
FTUS41 KBGM 300500
TAFBGM
TAF
KBGM 300536Z 3006/3106 23005KT P6SM BKN070
     FM301800 22008KT P6SM -SHRA OVC070
      TEMPO 3020/3024 5SM -SHRA OVC060
     FM310200 21005KT P6SM BKN120=



000
FTUS41 KBGM 300500
TAFAVP
TAF
KAVP 300536Z 3006/3106 VRB03KT P6SM FEW080
     FM302000 25008KT P6SM -SHRA BKN080
     FM310300 15003KT P6SM BKN150=



000
FTUS41 KBGM 300500
TAFITH
TAF
KITH 300536Z 3006/3106 11003KT P6SM BKN070
     FM301500 20007KT P6SM OVC070
     FM301800 22008KT P6SM -SHRA OVC070
      TEMPO 3020/3024 5SM -SHRA OVC060
     FM310000 16004KT P6SM BKN120=



000
FTUS41 KBGM 292300
TAFITH
TAF
KITH 292330Z 3000/3024 VRB03KT P6SM SCT040
     FM301400 22008KT P6SM BKN035 PROB30 3018/3024 -SHRA=



000
FTUS41 KBGM 292300
TAFELM
TAF
KELM 292330Z 3000/3024 VRB03KT P6SM SCT040
     FM300600 00000KT 4SM BR SCT002
      TEMPO 3008/3012 2SM BR
     FM301300 21008KT P6SM BKN050 PROB30 3018/3024 -SHRA=



000
FTUS41 KBGM 292300
TAFAVP
TAF
KAVP 292330Z 3000/3024 VRB03KT P6SM BKN040
     FM300500 VRB03KT P6SM FEW040
     FM301400 23008KT P6SM BKN050=



000
FTUS41 KBGM 292300
TAFBGM
TAF
KBGM 292330Z 3000/3024 VRB03KT P6SM BKN050
     FM300700 VRB03KT P6SM FEW040
     FM301400 22008KT P6SM BKN040 PROB30 3018/3024 -SHRA=



000
FTUS41 KBGM 292300
TAFSYR
TAF
KSYR 292330Z 3000/3024 VRB04KT P6SM SKC
     FM301400 21010KT P6SM BKN050 PROB30 3018/3024 -SHRA=



000
FTUS41 KBGM 291700
TAFBGM
TAF
KBGM 291725Z 2918/3018 30010KT P6SM SCT025 BKN050
     FM300000 VRB03KT P6SM SKC
     FM301400 22008KT P6SM BKN040=



000
FTUS41 KBGM 291700
TAFAVP
TAF
KAVP 291725Z 2918/3018 32008KT P6SM BKN060
     FM300000 VRB03KT P6SM SKC
     FM301400 23008KT P6SM BKN050=



000
FTUS41 KBGM 291700
TAFSYR
TAF
KSYR 291725Z 2918/3018 29012KT P6SM BKN050
     FM300000 VRB03KT P6SM SKC
     FM301400 21010KT P6SM BKN050=



000
FTUS41 KBGM 291700
TAFITH
TAF
KITH 291725Z 2918/3018 32008KT P6SM SCT025 BKN050
     FM300000 VRB03KT P6SM SKC
     FM301400 22008KT P6SM BKN035=



000
FTUS41 KBGM 291700
TAFELM
TAF
KELM 291725Z 2918/3018 29008KT P6SM BKN060
     FM300000 00000KT P6SM SKC
     FM300600 00000KT 2SM BR SCT002
      TEMPO 3008/3012 1/2SM FG OVC002
     FM301300 21008KT P6SM BKN050=



000
FTUS41 KBGM 291300 AAA
TAFBGM
TAF AMD
KBGM 291357Z 2914/3012 27008KT P6SM SCT008 BKN025
      TEMPO 2914/2915 OVC008
     FM291600 31010KT P6SM BKN050
     FM300000 25003KT P6SM FEW050=



000
FTUS41 KBGM 291300 AAA
TAFSYR
TAF AMD
KSYR 291357Z 2914/3012 30005KT P6SM SCT025 BKN045
     FM291600 31010KT P6SM SCT050
     FM300000 30003KT P6SM SKC=



000
FTUS41 KBGM 291300 AAA
TAFITH
TAF AMD
KITH 291357Z 2914/3012 30005KT P6SM SCT008 BKN025
      TEMPO 2914/2915 OVC008
     FM291600 32008KT P6SM BKN040
     FM300000 05003KT P6SM FEW050=



000
FTUS41 KBGM 291300 AAA
TAFELM
TAF AMD
KELM 291357Z 2914/3012 27005KT P6SM SCT025 BKN050
      TEMPO 2914/2915 BKN025
     FM291600 29008KT P6SM SCT060
     FM300000 00000KT P6SM FEW060
     FM300700 00000KT 1SM BR OVC002=



000
FTUS41 KBGM 291300 AAA
TAFAVP
TAF AMD
KAVP 291357Z 2914/3012 30005KT P6SM SCT025 BKN045
      TEMPO 2914/2915 BKN025
     FM291600 32008KT P6SM BKN060
     FM300000 11004KT P6SM FEW060=



000
FTUS41 KBGM 291100
TAFAVP
TAF
KAVP 291133Z 2912/3012 VRB04KT P6SM SCT025 BKN070
      TEMPO 2912/2914 BKN015
     FM291500 30006KT P6SM BKN060
     FM300000 11004KT P6SM FEW060=



000
FTUS41 KBGM 291100
TAFITH
TAF
KITH 291133Z 2912/3012 31004KT P6SM OVC050
      TEMPO 2912/2914 OVC008
     FM291400 30006KT P6SM BKN050
     FM300000 05003KT P6SM FEW050=



000
FTUS41 KBGM 291100
TAFBGM
TAF
KBGM 291133Z 2912/3012 29004KT P6SM SCT003 OVC060
      TEMPO 2912/2914 OVC003
     FM291500 30007KT P6SM BKN050
     FM300000 25003KT P6SM FEW050=



000
FTUS41 KBGM 291100
TAFELM
TAF
KELM 291133Z 2912/3012 25005KT P6SM OVC070
     FM291400 29006KT P6SM BKN070
     FM300000 00000KT P6SM FEW060
     FM300700 00000KT 1SM BR OVC002=



000
FTUS41 KBGM 291100
TAFSYR
TAF
KSYR 291133Z 2912/3012 26005KT P6SM BKN060
     FM291500 30008KT P6SM SCT070
     FM300000 30003KT P6SM SKC=



000
FTUS41 KBGM 291000 AAD
TAFITH
TAF AMD
KITH 291023Z 2910/3006 31004KT P6SM OVC050
      TEMPO 2910/2913 BKN009
     FM291400 30006KT P6SM BKN050
     FM300000 05003KT P6SM FEW050=



000
FTUS41 KBGM 290900 AAA
TAFSYR
TAF AMD
KSYR 290903Z 2909/3006 28005KT P6SM BKN060
     FM291500 31008KT P6SM SCT070
     FM300000 30003KT P6SM SKC=



000
FTUS41 KBGM 290900 AAA
TAFELM
TAF AMD
KELM 290903Z 2909/3006 30007KT P6SM BKN070
     FM291400 31006KT P6SM BKN070
     FM300000 00000KT P6SM FEW060=



000
FTUS41 KBGM 290900 AAB
TAFBGM
TAF AMD
KBGM 290903Z 2909/3006 31006KT P6SM SKC
     FM291200 29004KT P6SM SCT250
     FM291500 30007KT P6SM BKN050
     FM300000 25003KT P6SM FEW050=



000
FTUS41 KBGM 290900 AAC
TAFITH
TAF AMD
KITH 290903Z 2909/3006 31004KT P6SM SKC
      TEMPO 2909/2910 BKN009
     FM291400 30006KT P6SM BKN050
     FM300000 05003KT P6SM FEW050=



000
FTUS41 KBGM 290900 AAA
TAFAVP
TAF AMD
KAVP 290903Z 2909/3006 VRB04KT P6SM BKN070
      TEMPO 2909/2910 BKN025
     FM291500 30006KT P6SM BKN060
     FM300000 11004KT P6SM FEW060=



000
FTUS41 KBGM 290800 AAA
TAFBGM
TAF AMD
KBGM 290857Z 2909/3006 31006KT P6SM SKC
     FM291200 29004KT P6SM SCT250
     FM291500 30007KT P6SM BKN050
     FM300000 25003KT P6SM FEW050=



000
FTUS41 KBGM 290800 AAB
TAFITH
TAF AMD
KITH 290801Z 2908/3006 31004KT P6SM SKC
      TEMPO 2908/2910 BKN009
     FM291400 30006KT P6SM BKN050
     FM300000 05003KT P6SM FEW050=



000
FTUS41 KBGM 290700 AAA
TAFITH
TAF AMD
KITH 290718Z 2907/3006 31004KT P6SM SKC
     FM291400 30006KT P6SM BKN050
     FM300000 05003KT P6SM FEW050=



000
FTUS41 KBGM 290500
TAFITH
TAF
KITH 290535Z 2906/3006 31004KT P6SM BKN040
      TEMPO 2906/2910 BKN009 BKN015
     FM291400 30006KT P6SM BKN050
     FM300000 05003KT P6SM FEW050=



000
FTUS41 KBGM 290500
TAFSYR
TAF
KSYR 290535Z 2906/3006 28005KT P6SM BKN060
     FM291500 31008KT P6SM SCT070
     FM300000 30003KT P6SM SKC=



000
FTUS41 KBGM 290500
TAFELM
TAF
KELM 290535Z 2906/3006 30007KT P6SM BKN070
     FM291400 31006KT P6SM BKN070
     FM300000 00000KT P6SM FEW060=



000
FTUS41 KBGM 290500
TAFAVP
TAF
KAVP 290535Z 2906/3006 VRB04KT P6SM BKN070
      TEMPO 2906/2910 BKN025
     FM291500 30006KT P6SM BKN060
     FM300000 11004KT P6SM FEW060=



000
FTUS41 KBGM 290500
TAFBGM
TAF
KBGM 290535Z 2906/3006 31006KT P6SM BKN040
      TEMPO 2906/2910 BKN009
     FM291200 29004KT P6SM SCT250
     FM291500 30007KT P6SM BKN050
     FM300000 25003KT P6SM FEW050=



000
FTUS41 KBGM 290400 AAA
TAFAVP
TAF AMD
KAVP 290405Z 2904/2924 29006KT P6SM OVC019
     FM290600 VRB04KT P6SM SCT250
      TEMPO 2907/2911 4SM BR
     FM291500 30006KT P6SM SCT040=



000
FTUS41 KBGM 290400 AAA
TAFBGM
TAF AMD
KBGM 290405Z 2904/2924 32008KT P6SM -SHRA OVC040
     FM290600 31006KT P6SM SCT250
     FM290800 29004KT 3SM BR SCT250
     FM291200 29004KT P6SM SCT250
     FM291500 30007KT P6SM BKN035=



000
FTUS41 KBGM 290400 AAA
TAFSYR
TAF AMD
KSYR 290404Z 2904/2924 31007KT P6SM BKN040
     FM290600 30005KT P6SM BKN250
     FM291500 31008KT P6SM BKN040=



    US Dept of Commerce
    National Oceanic and Atmospheric Administration
    National Weather Service
    1325 East West Highway
    Silver Spring, MD 20910
    Page Author: NWS Internet Services Team
Disclaimer
Information Quality
Credits
Glossary
Privacy Policy
Freedom of Information Act (FOIA)
About Us
Career Opportunities